createdAt,value
2022-09-02T00:00:01.448Z,19.60
2022-09-02T00:02:31.337Z,19.60
2022-09-02T00:04:59.597Z,19.60
2022-09-02T00:07:27.446Z,19.50
2022-09-02T00:09:57.649Z,19.50
2022-09-02T00:12:27.002Z,19.50
2022-09-02T00:14:54.205Z,19.50
2022-09-02T00:17:23.689Z,19.40
2022-09-02T00:19:56.231Z,19.40
2022-09-02T00:22:23.927Z,19.30
2022-09-02T00:24:53.564Z,19.30
2022-09-02T00:27:20.933Z,19.20
2022-09-02T00:29:50.659Z,19.10
2022-09-02T00:32:18.583Z,19.10
2022-09-02T00:34:48.714Z,19.10
2022-09-02T00:37:17.266Z,19.00
2022-09-02T00:39:46.884Z,19.00
2022-09-02T00:42:14.109Z,18.90
2022-09-02T00:44:41.531Z,18.90
2022-09-02T00:47:08.997Z,18.90
2022-09-02T00:49:44.171Z,18.90
2022-09-02T00:52:19.723Z,18.80
2022-09-02T00:55:01.310Z,18.80
2022-09-02T00:57:33.149Z,18.70
2022-09-02T01:00:14.507Z,18.80
2022-09-02T01:02:42.266Z,18.70
2022-09-02T01:05:13.150Z,18.80
2022-09-02T01:07:41.425Z,18.70
2022-09-02T01:10:17.235Z,18.70
2022-09-02T01:12:50.649Z,18.60
2022-09-02T01:15:20.194Z,18.50
2022-09-02T01:17:50.958Z,18.60
2022-09-02T01:20:25.498Z,18.50
2022-09-02T01:22:54.896Z,18.50
2022-09-02T01:25:25.532Z,18.40
2022-09-02T01:27:53.947Z,18.40
2022-09-02T01:30:26.964Z,18.40
2022-09-02T01:32:54.308Z,18.30
2022-09-02T01:35:24.115Z,18.30
2022-09-02T01:37:56.171Z,18.30
2022-09-02T01:40:29.066Z,18.20
2022-09-02T01:43:14.040Z,18.20
2022-09-02T01:45:46.982Z,18.20
2022-09-02T01:48:21.717Z,18.20
2022-09-02T01:50:57.749Z,18.20
2022-09-02T01:53:25.738Z,18.10
2022-09-02T01:55:57.387Z,18.10
2022-09-02T01:58:24.837Z,18.00
2022-09-02T02:00:53.094Z,18.10
2022-09-02T02:03:25.053Z,18.00
2022-09-02T02:05:55.389Z,18.00
2022-09-02T02:08:25.879Z,18.00
2022-09-02T02:10:56.738Z,17.90
2022-09-02T02:13:24.254Z,17.90
2022-09-02T02:15:54.566Z,17.90
2022-09-02T02:18:21.869Z,17.90
2022-09-02T02:20:49.199Z,17.80
2022-09-02T02:23:19.303Z,17.80
2022-09-02T02:25:49.098Z,17.70
2022-09-02T02:28:16.336Z,17.80
2022-09-02T02:30:43.624Z,17.70
2022-09-02T02:33:13.588Z,17.60
2022-09-02T02:35:45.615Z,17.60
2022-09-02T02:38:14.553Z,17.60
2022-09-02T02:40:43.037Z,17.60
2022-09-02T02:43:10.292Z,17.50
2022-09-02T02:45:37.541Z,17.50
2022-09-02T02:48:07.657Z,17.50
2022-09-02T02:50:34.920Z,17.50
2022-09-02T02:53:03.266Z,17.60
2022-09-02T02:55:32.971Z,17.50
2022-09-02T02:58:01.561Z,17.50
2022-09-02T03:00:33.387Z,17.50
2022-09-02T03:03:11.340Z,17.50
2022-09-02T03:05:42.989Z,17.40
2022-09-02T03:08:13.886Z,17.50
2022-09-02T03:10:42.263Z,17.50
2022-09-02T03:13:11.123Z,17.50
2022-09-02T03:15:39.872Z,17.50
2022-09-02T03:18:08.041Z,17.40
2022-09-02T03:20:41.851Z,17.40
2022-09-02T03:23:12.826Z,17.40
2022-09-02T03:25:44.009Z,17.50
2022-09-02T03:28:12.933Z,17.40
2022-09-02T03:30:41.353Z,17.40
2022-09-02T03:33:09.038Z,17.50
2022-09-02T03:35:41.769Z,17.50
2022-09-02T03:38:12.844Z,17.40
2022-09-02T03:40:42.238Z,17.50
2022-09-02T03:43:10.058Z,17.50
2022-09-02T03:45:41.726Z,17.50
2022-09-02T03:48:11.339Z,17.50
2022-09-02T03:50:43.851Z,17.60
2022-09-02T03:53:19.847Z,17.60
2022-09-02T03:55:50.644Z,17.60
2022-09-02T03:58:18.533Z,17.60
2022-09-02T04:00:51.576Z,17.60
2022-09-02T04:03:19.949Z,17.60
2022-09-02T04:05:49.538Z,17.60
2022-09-02T04:08:18.209Z,17.70
2022-09-02T04:10:45.949Z,17.70
2022-09-02T04:13:13.719Z,17.70
2022-09-02T04:15:44.715Z,17.80
2022-09-02T04:18:14.764Z,17.70
2022-09-02T04:20:43.438Z,17.70
2022-09-02T04:23:13.241Z,17.80
2022-09-02T04:25:47.146Z,17.70
2022-09-02T04:28:14.445Z,17.70
2022-09-02T04:30:49.127Z,17.50
2022-09-02T04:33:16.703Z,17.60
2022-09-02T04:35:46.518Z,17.60
2022-09-02T04:38:17.103Z,17.70
2022-09-02T04:40:46.217Z,17.70
2022-09-02T04:43:16.899Z,17.80
2022-09-02T04:45:47.655Z,17.80
2022-09-02T04:48:15.699Z,17.90
2022-09-02T04:50:43.508Z,17.80
2022-09-02T04:53:10.878Z,17.80
2022-09-02T04:55:42.420Z,17.70
2022-09-02T04:58:12.241Z,17.70
2022-09-02T05:00:42.460Z,17.80
2022-09-02T05:03:13.125Z,17.80
2022-09-02T05:05:45.414Z,17.90
2022-09-02T05:08:13.205Z,18.00
2022-09-02T05:10:43.681Z,18.00
2022-09-02T05:13:14.106Z,18.00
2022-09-02T05:15:43.548Z,18.00
2022-09-02T05:18:11.490Z,18.00
2022-09-02T05:20:40.089Z,17.90
2022-09-02T05:23:07.401Z,17.60
2022-09-02T05:25:34.829Z,17.70
2022-09-02T05:28:02.718Z,17.80
2022-09-02T05:30:32.815Z,17.90
2022-09-02T05:33:00.090Z,17.90
2022-09-02T05:35:29.818Z,18.00
2022-09-02T05:38:00.889Z,18.00
2022-09-02T05:40:28.978Z,18.10
2022-09-02T05:42:59.342Z,18.20
2022-09-02T05:45:26.594Z,18.20
2022-09-02T05:47:56.347Z,18.20
2022-09-02T05:50:26.100Z,18.20
2022-09-02T05:52:58.999Z,18.30
2022-09-02T05:55:26.231Z,18.30
2022-09-02T05:57:54.009Z,18.30
2022-09-02T06:00:22.862Z,18.30
2022-09-02T06:02:50.707Z,18.40
2022-09-02T06:05:18.880Z,18.50
2022-09-02T06:07:46.180Z,18.70
2022-09-02T06:10:16.387Z,18.80
2022-09-02T06:12:43.613Z,18.90
2022-09-02T06:15:12.375Z,18.90
2022-09-02T06:17:41.870Z,19.10
2022-09-02T06:20:12.005Z,19.30
2022-09-02T06:22:39.291Z,19.30
2022-09-02T06:25:06.826Z,19.40
2022-09-02T06:27:34.072Z,19.40
2022-09-02T06:30:01.320Z,19.50
2022-09-02T06:32:33.420Z,19.70
2022-09-02T06:35:03.967Z,20.00
2022-09-02T06:37:32.101Z,20.30
2022-09-02T06:40:02.513Z,20.50
2022-09-02T06:42:29.735Z,20.80
2022-09-02T06:44:57.047Z,20.90
2022-09-02T06:47:24.838Z,20.90
2022-09-02T06:49:52.067Z,21.10
2022-09-02T06:52:19.891Z,21.40
2022-09-02T06:54:51.104Z,21.60
2022-09-02T06:57:19.213Z,21.80
2022-09-02T06:59:48.840Z,21.90
2022-09-02T07:05:07.501Z,22.30
2022-09-02T07:07:40.224Z,22.50
2022-09-02T07:10:10.885Z,22.60
2022-09-02T07:12:39.897Z,22.40
2022-09-02T07:15:12.007Z,22.80
2022-09-02T07:17:39.271Z,23.10
2022-09-02T07:20:07.470Z,23.50
2022-09-02T07:22:36.849Z,23.80
2022-09-02T07:25:07.089Z,23.90
2022-09-02T07:27:37.642Z,24.50
2022-09-02T07:30:08.259Z,24.70
2022-09-02T07:32:35.580Z,25.10
2022-09-02T07:35:08.456Z,25.00
2022-09-02T07:37:35.819Z,24.70
2022-09-02T07:40:06.466Z,24.90
2022-09-02T07:42:34.378Z,24.90
2022-09-02T07:45:04.638Z,24.70
2022-09-02T07:47:31.877Z,25.10
2022-09-02T07:50:16.446Z,25.90
2022-09-02T07:52:50.610Z,26.30
2022-09-02T07:55:17.983Z,26.70
2022-09-02T07:57:46.113Z,27.00
2022-09-02T08:00:14.312Z,27.40
2022-09-02T08:02:42.715Z,27.30
2022-09-02T08:05:11.153Z,27.30
2022-09-02T08:07:39.064Z,27.70
2022-09-02T08:10:10.663Z,28.00
2022-09-02T08:12:42.483Z,28.20
2022-09-02T08:15:12.185Z,28.30
2022-09-02T08:17:40.809Z,28.40
2022-09-02T08:20:12.383Z,28.60
2022-09-02T08:22:40.932Z,28.70
2022-09-02T08:25:10.967Z,29.10
2022-09-02T08:27:40.639Z,29.90
2022-09-02T08:30:12.124Z,30.20
2022-09-02T08:32:40.897Z,30.00
2022-09-02T08:35:10.712Z,30.40
2022-09-02T08:37:38.585Z,31.20
2022-09-02T08:40:13.551Z,31.70
2022-09-02T08:42:51.160Z,31.10
2022-09-02T08:45:25.680Z,31.30
2022-09-02T08:48:20.471Z,32.10
2022-09-02T08:50:58.888Z,32.70
2022-09-02T08:53:36.526Z,33.40
2022-09-02T08:56:06.466Z,33.90
2022-09-02T08:58:43.698Z,33.60
2022-09-02T09:01:25.838Z,32.50
2022-09-02T09:04:06.197Z,31.20
2022-09-02T09:07:09.179Z,31.40
2022-09-02T09:09:55.402Z,31.90
2022-09-02T09:12:48.795Z,32.10
2022-09-02T09:15:31.076Z,32.30
2022-09-02T09:18:03.206Z,33.40
2022-09-02T09:20:36.950Z,33.40
2022-09-02T09:23:25.658Z,33.10
2022-09-02T09:26:04.172Z,33.40
2022-09-02T09:28:40.650Z,33.70
2022-09-02T09:31:15.012Z,34.40
2022-09-02T09:33:59.486Z,34.40
2022-09-02T09:36:48.217Z,34.70
2022-09-02T09:39:35.719Z,35.20
2022-09-02T09:42:13.327Z,35.40
2022-09-02T09:44:44.635Z,35.80
2022-09-02T09:47:21.292Z,36.00
2022-09-02T09:49:51.313Z,35.60
2022-09-02T09:52:31.186Z,35.40
2022-09-02T09:55:24.790Z,34.50
2022-09-02T09:57:54.064Z,34.60
2022-09-02T10:00:33.061Z,35.90
2022-09-02T10:03:06.793Z,36.50
2022-09-02T10:05:38.965Z,36.70
2022-09-02T10:08:21.964Z,37.00
2022-09-02T10:11:04.451Z,36.70
2022-09-02T10:13:34.092Z,36.00
2022-09-02T10:16:16.053Z,35.00
2022-09-02T10:18:49.846Z,35.50
2022-09-02T10:21:49.502Z,35.90
2022-09-02T10:24:51.314Z,35.00
2022-09-02T10:27:29.566Z,34.50
2022-09-02T10:30:08.148Z,34.40
2022-09-02T10:32:38.416Z,35.20
2022-09-02T10:35:16.429Z,35.40
2022-09-02T10:38:10.960Z,35.60
2022-09-02T10:41:06.892Z,35.90
2022-09-02T10:43:57.448Z,36.00
2022-09-02T10:46:26.881Z,35.90
2022-09-02T10:49:03.164Z,35.90
2022-09-02T10:52:21.179Z,35.70
2022-09-02T10:55:19.273Z,35.90
2022-09-02T10:57:53.274Z,35.90
2022-09-02T11:00:23.177Z,36.00
2022-09-02T11:03:14.727Z,36.50
2022-09-02T11:05:51.049Z,36.80
2022-09-02T11:08:40.391Z,36.90
2022-09-02T11:11:25.352Z,36.70
2022-09-02T11:14:37.404Z,36.40
2022-09-02T11:17:28.614Z,36.50
2022-09-02T11:20:03.924Z,36.60
2022-09-02T11:22:54.459Z,36.70
2022-09-02T11:25:39.615Z,36.60
2022-09-02T11:28:27.161Z,36.10
2022-09-02T11:31:14.742Z,35.80
2022-09-02T11:34:08.171Z,35.70
2022-09-02T11:36:44.637Z,36.00
2022-09-02T11:39:30.720Z,36.00
2022-09-02T11:42:26.352Z,36.40
2022-09-02T11:45:10.425Z,36.40
2022-09-02T11:47:56.505Z,35.20
2022-09-02T11:50:44.527Z,35.20
2022-09-02T11:53:36.840Z,35.50
2022-09-02T11:56:16.115Z,35.10
2022-09-02T11:58:52.477Z,34.60
2022-09-02T12:01:26.328Z,34.30
2022-09-02T12:07:11.157Z,35.70
2022-09-02T12:09:55.984Z,34.50
2022-09-02T12:12:57.007Z,34.00
2022-09-02T12:15:24.729Z,35.10
2022-09-02T12:17:55.149Z,35.40
2022-09-02T12:20:41.525Z,35.60
2022-09-02T12:23:11.446Z,35.20
2022-09-02T12:25:48.283Z,34.70
2022-09-02T12:28:30.537Z,34.80
2022-09-02T12:31:13.088Z,35.10
2022-09-02T12:33:46.312Z,35.20
2022-09-02T12:36:36.668Z,35.70
2022-09-02T12:39:23.259Z,36.30
2022-09-02T12:42:11.336Z,36.20
2022-09-02T12:45:07.371Z,36.00
2022-09-02T12:47:49.998Z,36.10
2022-09-02T12:50:17.186Z,36.20
2022-09-02T12:52:50.418Z,35.90
2022-09-02T12:55:30.649Z,36.10
2022-09-02T12:58:06.986Z,35.30
2022-09-02T13:00:55.329Z,35.00
2022-09-02T13:03:36.354Z,35.00
2022-09-02T13:06:18.739Z,34.80
2022-09-02T13:09:04.248Z,34.70
2022-09-02T13:12:19.779Z,34.00
2022-09-02T13:15:07.925Z,33.50
2022-09-02T13:17:48.478Z,34.00
2022-09-02T13:20:44.935Z,33.90
2022-09-02T13:23:31.616Z,34.00
2022-09-02T13:26:47.810Z,34.10
2022-09-02T13:29:47.074Z,34.10
2022-09-02T13:32:23.008Z,34.20
2022-09-02T13:34:55.004Z,34.60
2022-09-02T13:37:40.781Z,34.50
2022-09-02T13:40:24.288Z,34.10
2022-09-02T13:42:59.187Z,33.80
2022-09-02T13:45:28.816Z,33.70
2022-09-02T13:48:01.731Z,33.70
2022-09-02T13:50:31.076Z,33.50
2022-09-02T13:53:54.135Z,33.20
2022-09-02T13:55:57.720Z,32.80
2022-09-02T13:58:31.043Z,32.30
2022-09-02T14:01:19.625Z,32.60
2022-09-02T14:03:55.786Z,32.80
2022-09-02T14:06:30.173Z,32.70
2022-09-02T14:09:02.396Z,32.60
2022-09-02T14:11:38.002Z,32.60
2022-09-02T14:14:05.518Z,32.70
2022-09-02T14:16:37.420Z,32.80
2022-09-02T14:19:24.503Z,32.80
2022-09-02T14:21:59.246Z,32.60
2022-09-02T14:24:29.000Z,32.60
2022-09-02T14:26:58.812Z,32.10
2022-09-02T14:29:29.457Z,31.90
2022-09-02T14:32:12.690Z,31.60
2022-09-02T14:34:45.333Z,31.50
2022-09-02T14:37:28.521Z,31.40
2022-09-02T14:40:12.690Z,31.00
2022-09-02T14:42:57.268Z,30.90
2022-09-02T14:45:49.024Z,31.10
2022-09-02T14:48:26.975Z,31.30
2022-09-02T14:51:06.506Z,31.20
2022-09-02T14:53:37.420Z,31.30
2022-09-02T14:56:06.417Z,31.40
2022-09-02T14:58:34.189Z,31.30
2022-09-02T15:01:02.364Z,31.00
2022-09-02T15:03:30.979Z,31.10
2022-09-02T15:05:58.704Z,31.00
2022-09-02T15:08:26.656Z,30.70
2022-09-02T15:10:58.069Z,30.60
2022-09-02T15:13:30.337Z,30.50
2022-09-02T15:15:59.459Z,30.50
2022-09-02T15:18:26.890Z,30.10
2022-09-02T15:20:54.305Z,30.00
2022-09-02T15:23:23.029Z,30.00
2022-09-02T15:25:50.396Z,29.80
2022-09-02T15:28:18.079Z,29.90
2022-09-02T15:30:45.330Z,29.70
2022-09-02T15:33:16.446Z,29.60
2022-09-02T15:35:47.350Z,29.60
2022-09-02T15:38:17.155Z,29.50
2022-09-02T15:40:45.339Z,29.50
2022-09-02T15:43:16.902Z,29.60
2022-09-02T15:45:49.706Z,29.40
2022-09-02T15:48:16.924Z,29.20
2022-09-02T15:50:46.451Z,29.10
2022-09-02T15:53:15.866Z,29.00
2022-09-02T15:55:43.829Z,28.90
2022-09-02T15:58:12.117Z,28.90
2022-09-02T16:00:41.683Z,28.80
2022-09-02T16:03:11.798Z,28.70
2022-09-02T16:05:39.126Z,28.80
2022-09-02T16:08:09.351Z,28.80
2022-09-02T16:10:37.551Z,28.90
2022-09-02T16:13:05.624Z,29.00
2022-09-02T16:15:34.401Z,29.00
2022-09-02T16:18:01.776Z,28.90
2022-09-02T16:20:31.470Z,28.70
2022-09-02T16:22:59.159Z,28.70
2022-09-02T16:25:26.392Z,28.80
2022-09-02T16:27:56.530Z,28.70
2022-09-02T16:30:24.289Z,28.60
2022-09-02T16:32:54.423Z,28.20
2022-09-02T16:35:24.145Z,27.80
2022-09-02T16:37:53.066Z,27.80
2022-09-02T16:40:21.625Z,27.90
2022-09-02T16:42:49.427Z,27.90
2022-09-02T16:45:19.528Z,27.70
2022-09-02T16:47:49.865Z,27.60
2022-09-02T16:50:17.710Z,27.60
2022-09-02T16:52:45.014Z,27.50
2022-09-02T16:55:17.799Z,27.60
2022-09-02T16:57:45.322Z,27.50
2022-09-02T17:00:13.883Z,27.60
2022-09-02T17:02:43.314Z,27.70
2022-09-02T17:05:10.875Z,27.60
2022-09-02T17:07:41.160Z,27.60
2022-09-02T17:10:08.742Z,27.80
2022-09-02T17:12:40.820Z,27.90
2022-09-02T17:15:10.315Z,27.70
2022-09-02T17:17:39.887Z,27.30
2022-09-02T17:20:07.570Z,27.10
2022-09-02T17:22:37.982Z,27.10
2022-09-02T17:25:06.399Z,27.00
2022-09-02T17:27:34.293Z,26.90
2022-09-02T17:30:01.770Z,27.00
2022-09-02T17:32:29.501Z,27.00
2022-09-02T17:34:59.229Z,26.90
2022-09-02T17:37:26.705Z,26.80
2022-09-02T17:39:54.139Z,26.80
2022-09-02T17:42:22.102Z,26.40
2022-09-02T17:44:50.055Z,26.30
2022-09-02T17:47:22.091Z,26.20
2022-09-02T17:49:52.457Z,26.20
2022-09-02T17:52:22.996Z,26.40
2022-09-02T17:54:53.080Z,26.40
2022-09-02T17:57:42.444Z,26.20
2022-09-02T18:00:16.104Z,26.00
2022-09-02T18:03:22.338Z,26.00
2022-09-02T18:05:58.327Z,26.20
2022-09-02T18:09:03.392Z,26.00
2022-09-02T18:11:30.803Z,25.80
2022-09-02T18:14:22.233Z,25.80
2022-09-02T18:17:08.497Z,25.70
2022-09-02T18:19:58.895Z,25.70
2022-09-02T18:22:44.552Z,25.50
2022-09-02T18:25:24.189Z,25.50
2022-09-02T18:27:52.508Z,25.50
2022-09-02T18:30:24.135Z,25.30
2022-09-02T18:32:55.222Z,25.10
2022-09-02T18:35:41.722Z,25.20
2022-09-02T18:38:46.145Z,25.30
2022-09-02T18:41:24.075Z,25.20
2022-09-02T18:44:10.071Z,25.20
2022-09-02T18:46:49.661Z,25.10
2022-09-02T18:49:21.122Z,25.10
2022-09-02T18:51:54.081Z,25.10
2022-09-02T18:54:33.138Z,25.10
2022-09-02T18:57:08.571Z,25.10
2022-09-02T19:00:05.591Z,25.20
2022-09-02T19:02:54.720Z,25.20
2022-09-02T19:05:26.457Z,25.10
2022-09-02T19:08:21.922Z,25.10
2022-09-02T19:10:49.645Z,25.10
2022-09-02T19:13:17.007Z,25.10
2022-09-02T19:15:44.605Z,25.00
2022-09-02T19:18:15.144Z,25.10
2022-09-02T19:20:42.977Z,25.00
2022-09-02T19:23:13.067Z,24.90
2022-09-02T19:25:44.285Z,24.80
2022-09-02T19:28:14.403Z,24.50
2022-09-02T19:30:44.780Z,24.30
2022-09-02T19:33:13.842Z,24.40
2022-09-02T19:35:48.502Z,24.30
2022-09-02T19:38:21.476Z,24.20
2022-09-02T19:40:49.556Z,24.10
2022-09-02T19:43:17.680Z,24.00
2022-09-02T19:45:48.897Z,24.00
2022-09-02T19:48:16.971Z,23.90
2022-09-02T19:50:46.278Z,23.80
2022-09-02T19:53:30.169Z,23.50
2022-09-02T19:56:01.382Z,23.50
2022-09-02T19:58:30.878Z,23.40
2022-09-02T20:00:59.272Z,23.40
2022-09-02T20:03:29.867Z,23.20
2022-09-02T20:05:59.775Z,23.10
2022-09-02T20:08:36.144Z,23.10
2022-09-02T20:11:06.233Z,23.20
2022-09-02T20:13:40.116Z,23.20
2022-09-02T20:16:17.807Z,23.20
2022-09-02T20:18:46.758Z,23.20
2022-09-02T20:21:42.271Z,23.20
2022-09-02T20:24:14.748Z,23.20
2022-09-02T20:26:53.707Z,23.20
2022-09-02T20:29:36.831Z,23.10
2022-09-02T20:32:34.597Z,23.30
2022-09-02T20:35:34.563Z,23.30
2022-09-02T20:38:11.701Z,23.20
2022-09-02T20:40:57.946Z,23.10
2022-09-02T20:44:07.093Z,23.10
2022-09-02T20:46:59.078Z,23.10
2022-09-02T20:49:39.492Z,23.10
2022-09-02T20:52:25.973Z,23.10
2022-09-02T20:55:21.491Z,23.20
2022-09-02T20:58:16.560Z,23.20
2022-09-02T21:01:16.233Z,23.30
2022-09-02T21:04:09.028Z,23.10
2022-09-02T21:06:41.654Z,23.00
2022-09-02T21:09:27.249Z,23.10
2022-09-02T21:12:02.822Z,23.10
2022-09-02T21:14:41.220Z,23.20
2022-09-02T21:17:14.338Z,23.10
2022-09-02T21:19:58.027Z,23.00
2022-09-02T21:22:31.845Z,23.00
2022-09-02T21:25:27.065Z,23.10
2022-09-02T21:28:02.732Z,23.20
2022-09-02T21:30:38.133Z,23.40
2022-09-02T21:33:10.467Z,23.50
2022-09-02T21:35:49.225Z,23.50
2022-09-02T21:38:30.256Z,23.60
2022-09-02T21:41:12.564Z,23.70
2022-09-02T21:43:56.142Z,23.70
2022-09-02T21:47:12.525Z,23.60
2022-09-02T21:49:56.642Z,23.50
2022-09-02T21:52:39.284Z,23.40
2022-09-02T21:55:38.111Z,23.20
2022-09-02T21:58:28.627Z,23.20
2022-09-02T22:01:19.004Z,23.10
2022-09-02T22:03:51.225Z,23.10
2022-09-02T22:06:30.646Z,23.00
2022-09-02T22:09:41.979Z,22.60
2022-09-02T22:12:14.600Z,22.30
2022-09-02T22:14:59.315Z,22.10
2022-09-02T22:17:38.620Z,22.00
2022-09-02T22:20:07.607Z,22.00
2022-09-02T22:22:39.612Z,22.10
2022-09-02T22:25:15.618Z,22.10
2022-09-02T22:27:56.987Z,22.10
2022-09-02T22:30:27.160Z,22.00
2022-09-02T22:33:12.330Z,22.00
2022-09-02T22:35:51.815Z,22.00
2022-09-02T22:38:37.976Z,22.20
2022-09-02T22:41:23.797Z,22.20
2022-09-02T22:44:05.773Z,22.10
2022-09-02T22:47:17.712Z,22.10
2022-09-02T22:50:09.774Z,21.90
2022-09-02T22:52:57.824Z,21.90
2022-09-02T22:55:47.085Z,22.00
2022-09-02T22:58:48.862Z,22.10
2022-09-02T23:01:34.851Z,22.00
2022-09-02T23:04:08.149Z,22.00
2022-09-02T23:06:35.515Z,22.00
2022-09-02T23:09:14.018Z,22.00
2022-09-02T23:12:02.382Z,22.10
2022-09-02T23:14:51.424Z,22.20
2022-09-02T23:17:23.891Z,22.10
2022-09-02T23:19:59.663Z,22.20
2022-09-02T23:22:40.983Z,22.10
2022-09-02T23:25:30.264Z,22.10
2022-09-02T23:28:16.880Z,21.90
2022-09-02T23:31:00.439Z,21.90
2022-09-02T23:33:42.460Z,21.60
2022-09-02T23:36:41.336Z,21.50
2022-09-02T23:39:31.117Z,21.50
2022-09-02T23:42:04.041Z,21.40
2022-09-02T23:44:33.603Z,21.20
2022-09-02T23:47:19.432Z,21.20
2022-09-02T23:50:14.916Z,21.10
2022-09-02T23:52:44.840Z,20.90
2022-09-02T23:55:33.453Z,20.90
2022-09-02T23:58:28.917Z,20.80
